Time;durP1;ratioP1;P1;durP2;ratioP2;P2;SDS_P1;SDS_P2;PMS_P1;PMS_P2;Temp;Humidity;BMP_temperature;BMP_pressure;BME280_temperature;BME280_humidity;BME280_pressure;Samples;Min_cycle;Max_cycle;Signal;HPM_P1;HPM_P2
2022/11/01 00:04:12;;;;;;;13.93;12.33;;;16.40;99.90;;;;;;10003847;29;20353;-87
2022/11/01 00:09:15;;;;;;;31.33;20.43;;;16.90;99.90;;;;;;9985472;29;20364;-87
2022/11/01 00:14:19;;;;;;;32.47;20.60;;;16.60;99.90;;;;;;10020627;29;20683;-87
2022/11/01 00:19:22;;;;;;;16.13;11.77;;;16.60;99.90;;;;;;9998792;29;20250;-87
2022/11/01 00:24:24;;;;;;;12.30;10.23;;;17.50;99.90;;;;;;10000267;29;20262;-87
2022/11/01 00:29:26;;;;;;;13.10;11.67;;;17.80;99.90;;;;;;10019667;29;20286;-87
2022/11/01 00:34:29;;;;;;;21.40;15.47;;;17.30;99.90;;;;;;9965454;29;20378;-86
2022/11/01 00:39:31;;;;;;;15.95;11.73;;;17.00;99.90;;;;;;9996069;29;20349;-87
2022/11/01 00:44:34;;;;;;;24.07;17.30;;;17.10;99.90;;;;;;9965467;29;20319;-88
2022/11/01 00:49:36;;;;;;;14.33;10.73;;;17.20;99.90;;;;;;9965611;29;20251;-87
2022/11/01 00:54:39;;;;;;;11.67;10.43;;;17.70;99.90;;;;;;9964804;29;20295;-87
2022/11/01 00:59:41;;;;;;;21.23;15.93;;;17.90;99.90;;;;;;9983522;29;20918;-87
2022/11/01 01:04:44;;;;;;;11.50;10.13;;;17.20;99.90;;;;;;9980828;29;20266;-87
2022/11/01 01:09:46;;;;;;;17.87;12.10;;;17.90;99.90;;;;;;9986377;29;20241;-87
2022/11/01 01:14:49;;;;;;;18.07;13.07;;;17.80;99.90;;;;;;9988739;29;20247;-87
2022/11/01 01:19:51;;;;;;;22.98;17.35;;;17.60;99.90;;;;;;10000709;29;20278;-87
2022/11/01 01:24:54;;;;;;;13.80;12.00;;;17.10;99.90;;;;;;9986414;29;20315;-87
2022/11/01 01:29:57;;;;;;;13.60;10.90;;;;;;;;;;9980867;29;20252;-87
2022/11/01 01:34:59;;;;;;;11.93;10.67;;;17.70;99.90;;;;;;10015547;29;20250;-87
2022/11/01 01:40:03;;;;;;;16.60;13.10;;;17.80;99.90;;;;;;9994034;29;20254;-87
2022/11/01 01:45:14;;;;;;;11.73;10.53;;;17.80;99.90;;;;;;9979136;29;20802;-87
2022/11/01 01:50:34;;;;;;;16.70;13.10;;;17.70;99.90;;;;;;9991450;29;20237;-87
2022/11/01 01:55:46;;;;;;;25.23;17.37;;;17.90;99.90;;;;;;9984232;29;20824;-87
2022/11/01 02:00:49;;;;;;;14.23;12.73;;;17.80;99.90;;;;;;10012630;29;20246;-87
2022/11/01 02:06:05;;;;;;;14.20;12.27;;;17.40;99.90;;;;;;9999948;29;20266;-88
2022/11/01 02:11:10;;;;;;;21.37;16.47;;;17.40;99.90;;;;;;9995463;29;20242;-87
2022/11/01 02:16:13;;;;;;;26.17;18.37;;;17.20;99.90;;;;;;9962614;29;20280;-88
2022/11/01 02:21:48;;;;;;;30.97;20.27;;;16.50;99.90;;;;;;9979214;29;20367;-88
2022/11/01 02:27:09;;;;;;;13.50;11.87;;;15.60;99.90;;;;;;9836620;30;20342;-88
2022/11/01 02:32:30;;;;;;;13.50;11.20;;;16.70;99.90;;;;;;9861675;30;20244;-88
2022/11/01 02:37:40;;;;;;;11.47;10.27;;;17.00;99.90;;;;;;9845950;30;20244;-88
2022/11/01 02:42:47;;;;;;;17.63;14.47;;;17.90;99.90;;;;;;9846823;30;20276;-88
2022/11/01 02:47:49;;;;;;;12.07;10.87;;;17.90;99.90;;;;;;9861590;30;20249;-88
2022/11/01 02:52:54;;;;;;;18.97;14.70;;;17.80;99.90;;;;;;9829364;30;20317;-88
2022/11/01 02:58:17;;;;;;;28.97;20.17;;;17.40;99.90;;;;;;9861131;30;20680;-88
2022/11/01 03:03:32;;;;;;;12.93;10.80;;;16.60;99.90;;;;;;9968718;29;20262;-88
2022/11/01 03:08:45;;;;;;;18.87;13.80;;;17.30;99.90;;;;;;10009390;29;20245;-87
2022/11/01 03:14:05;;;;;;;21.50;15.13;;;17.90;99.90;;;;;;9978093;29;20327;-88
2022/11/01 03:19:31;;;;;;;13.10;11.63;;;16.30;99.90;;;;;;9962046;29;20781;-88
2022/11/01 03:24:43;;;;;;;10.73;9.63;;;17.10;99.90;;;;;;9977309;29;20262;-88
2022/11/01 03:29:56;;;;;;;12.90;11.03;;;17.20;99.90;;;;;;9952314;29;20294;-88
2022/11/01 03:35:01;;;;;;;11.13;10.03;;;17.30;99.90;;;;;;9990196;29;20299;-88
2022/11/01 03:40:06;;;;;;;11.37;10.20;;;17.00;99.90;;;;;;9961335;29;20627;-88
2022/11/01 03:45:13;;;;;;;19.93;16.60;;;17.60;99.90;;;;;;9995025;29;20338;-88
2022/11/01 03:50:21;;;;;;;22.37;16.70;;;16.70;99.90;;;;;;10008292;29;20257;-88
2022/11/01 03:55:24;;;;;;;16.73;13.60;;;15.70;99.90;;;;;;9987459;29;20246;-88
2022/11/01 04:00:37;;;;;;;20.70;17.03;;;16.40;99.90;;;;;;9984992;29;20236;-88
2022/11/01 04:05:41;;;;;;;18.13;14.03;;;16.00;99.90;;;;;;9987978;29;20270;-88
2022/11/01 04:10:43;;;;;;;14.70;12.33;;;16.20;99.90;;;;;;9976332;29;20239;-88
2022/11/01 04:21:10;;;;;;;14.77;12.90;;;16.90;99.90;;;;;;9989600;29;20299;-88
2022/11/01 04:26:18;;;;;;;14.17;11.77;;;17.10;99.90;;;;;;10021028;29;20266;-89
2022/11/01 04:31:30;;;;;;;12.57;9.93;;;17.00;99.90;;;;;;10002913;29;20234;-88
2022/11/01 04:36:32;;;;;;;12.67;10.87;;;17.60;99.90;;;;;;10004120;29;20246;-88
2022/11/01 04:41:35;;;;;;;10.93;9.83;;;17.50;99.90;;;;;;9999237;29;20278;-88
2022/11/01 04:46:37;;;;;;;15.97;12.30;;;17.80;99.90;;;;;;9983844;29;20263;-88
2022/11/01 04:51:41;;;;;;;22.57;16.10;;;17.00;99.90;;;;;;9989241;29;20698;-88
2022/11/01 04:56:44;;;;;;;19.83;14.27;;;16.20;99.90;;;;;;9982964;29;20250;-88
2022/11/01 05:01:46;;;;;;;10.73;9.63;;;17.30;99.90;;;;;;9996499;29;20254;-87
2022/11/01 05:06:49;;;;;;;17.67;12.27;;;17.90;99.90;;;;;;9992213;29;20266;-88
2022/11/01 05:11:51;;;;;;;13.93;12.30;;;17.10;99.90;;;;;;9972545;29;20242;-88
2022/11/01 05:16:57;;;;;;;13.77;11.40;;;16.90;99.90;;;;;;9976879;29;20315;-88
2022/11/01 05:22:00;;;;;;;12.13;10.77;;;17.20;99.90;;;;;;9994562;29;20251;-88
2022/11/01 05:27:02;;;;;;;16.10;12.60;;;17.40;99.90;;;;;;10006277;29;20266;-88
2022/11/01 05:32:05;;;;;;;18.00;14.10;;;17.20;99.90;;;;;;9996334;29;20272;-87
2022/11/01 05:37:07;;;;;;;14.60;11.87;;;16.60;99.90;;;;;;10003308;29;20821;-88
2022/11/01 05:42:10;;;;;;;12.33;10.83;;;16.40;99.90;;;;;;9999923;29;20271;-88
2022/11/01 05:47:12;;;;;;;20.53;14.67;;;17.00;99.90;;;;;;9995326;29;20340;-88
2022/11/01 05:52:18;;;;;;;22.45;16.20;;;16.60;99.90;;;;;;9996522;29;20239;-87
2022/11/01 05:57:21;;;;;;;14.77;12.10;;;16.10;99.90;;;;;;9994638;29;20766;-88
2022/11/01 06:02:23;;;;;;;23.87;17.23;;;16.40;99.90;;;;;;9977860;29;20249;-87
2022/11/01 06:07:26;;;;;;;19.27;13.10;;;16.00;99.90;;;;;;9994580;29;20269;-88
2022/11/01 06:12:29;;;;;;;22.37;16.73;;;16.20;99.90;;;;;;9994433;29;20765;-88
2022/11/01 06:17:31;;;;;;;25.40;17.07;;;15.50;99.90;;;;;;10008053;29;20725;-88
2022/11/01 06:22:35;;;;;;;10.83;9.73;;;15.60;99.90;;;;;;9989556;29;20296;-88
2022/11/01 06:27:37;;;;;;;27.17;16.77;;;16.10;99.90;;;;;;9963452;29;20701;-88
2022/11/01 06:32:40;;;;;;;29.67;18.53;;;17.00;99.90;;;;;;9987040;29;20299;-88
2022/11/01 06:37:42;;;;;;;12.40;10.03;;;16.90;99.90;;;;;;9975101;29;20714;-87
2022/11/01 06:42:44;;;;;;;18.17;13.80;;;16.30;99.90;;;;;;9981126;29;20292;-87
2022/11/01 06:47:48;;;;;;;10.97;9.20;;;16.80;99.90;;;;;;9998358;29;20270;-88
2022/11/01 06:52:54;;;;;;;21.10;15.97;;;17.00;99.90;;;;;;9979373;29;20242;-88
2022/11/01 06:58:03;;;;;;;22.17;16.07;;;17.10;99.90;;;;;;9980728;29;20246;-88
2022/11/01 07:03:09;;;;;;;27.47;18.70;;;17.50;99.90;;;;;;9995449;29;20254;-88
2022/11/01 07:08:12;;;;;;;10.23;9.13;;;16.90;99.90;;;;;;9993203;29;20329;-88
2022/11/01 07:13:15;;;;;;;12.53;10.50;;;16.60;99.90;;;;;;9975001;29;20299;-88
2022/11/01 07:18:17;;;;;;;19.07;12.87;;;16.90;99.90;;;;;;9994932;29;20250;-87
2022/11/01 07:23:20;;;;;;;19.60;14.77;;;17.10;99.90;;;;;;9998997;29;20307;-87
2022/11/01 07:28:22;;;;;;;13.23;10.60;;;16.90;99.90;;;;;;10005391;29;20311;-88
2022/11/01 07:33:25;;;;;;;28.40;20.13;;;17.40;99.90;;;;;;9980235;29;20245;-88
2022/11/01 07:38:28;;;;;;;12.47;10.37;;;17.40;99.90;;;;;;9988811;29;20284;-88
2022/11/01 07:43:30;;;;;;;19.87;15.07;;;17.40;99.90;;;;;;9976185;29;20274;-88
2022/11/01 07:48:35;;;;;;;14.43;11.17;;;17.50;99.90;;;;;;9976646;29;20254;-88
2022/11/01 07:53:38;;;;;;;20.70;17.03;;;17.60;99.90;;;;;;9995004;29;20298;-88
2022/11/01 07:58:42;;;;;;;19.33;15.20;;;17.60;99.90;;;;;;9991723;29;20291;-88
2022/11/01 08:03:44;;;;;;;11.63;10.40;;;17.70;99.90;;;;;;9995041;29;20345;-88
2022/11/01 08:08:47;;;;;;;17.40;13.47;;;17.50;99.90;;;;;;9982507;29;20296;-88
2022/11/01 08:13:49;;;;;;;18.20;13.47;;;17.80;99.90;;;;;;9975079;29;20264;-88
2022/11/01 08:18:52;;;;;;;13.90;10.43;;;17.90;99.90;;;;;;9966868;29;20336;-87
2022/11/01 08:23:55;;;;;;;13.40;10.97;;;18.10;99.90;;;;;;9994093;29;20229;-87
2022/11/01 08:28:59;;;;;;;11.00;9.80;;;18.20;99.90;;;;;;10020506;29;20298;-88
2022/11/01 08:34:01;;;;;;;12.67;10.93;;;18.40;99.90;;;;;;9979277;29;20784;-87
2022/11/01 08:39:04;;;;;;;11.27;9.67;;;18.40;99.90;;;;;;9968063;29;20243;-87
2022/11/01 08:44:07;;;;;;;22.40;17.07;;;18.30;99.90;;;;;;10019810;29;20277;-87
2022/11/01 08:49:10;;;;;;;10.87;9.67;;;18.30;99.90;;;;;;10008253;29;20251;-87
2022/11/01 08:54:13;;;;;;;14.00;11.17;;;18.70;99.90;;;;;;9981231;29;20254;-88
2022/11/01 08:59:16;;;;;;;17.87;12.27;;;18.60;99.90;;;;;;9980656;29;20246;-87
2022/11/01 09:04:19;;;;;;;12.53;10.40;;;18.50;99.90;;;;;;9948531;29;20254;-88
2022/11/01 09:09:21;;;;;;;21.52;15.13;;;18.40;99.90;;;;;;9988220;29;20773;-89
2022/11/01 09:14:25;;;;;;;14.27;11.90;;;18.20;99.90;;;;;;9998135;29;20258;-87
2022/11/01 09:19:27;;;;;;;34.97;21.60;;;18.10;99.90;;;;;;10013166;29;20255;-87
2022/11/01 09:24:30;;;;;;;30.15;19.40;;;17.90;99.90;;;;;;9997476;29;20831;-88
2022/11/01 09:29:32;;;;;;;22.70;16.48;;;16.80;99.90;;;;;;9980750;29;20326;-88
2022/11/01 09:34:40;;;;;;;23.83;17.00;;;17.40;99.90;;;;;;10021773;29;20700;-88
2022/11/01 09:39:43;;;;;;;29.10;18.30;;;17.20;99.90;;;;;;10027614;29;20328;-88
2022/11/01 09:44:49;;;;;;;18.10;13.37;;;17.40;99.90;;;;;;10001939;29;20334;-88
2022/11/01 09:49:59;;;;;;;45.27;27.10;;;17.20;99.90;;;;;;10025852;29;20289;-88
2022/11/01 09:55:02;;;;;;;50.10;28.90;;;17.00;99.90;;;;;;9963596;29;20292;-89
2022/11/01 10:00:15;;;;;;;48.50;26.97;;;16.60;99.90;;;;;;10016928;29;20245;-88
2022/11/01 10:05:29;;;;;;;30.03;19.50;;;17.10;99.90;;;;;;9993506;29;20270;-89
2022/11/01 10:10:42;;;;;;;20.17;15.03;;;17.20;99.90;;;;;;10002149;29;20299;-89
2022/11/01 10:16:02;;;;;;;29.70;19.23;;;17.30;99.90;;;;;;9974803;29;20976;-88
2022/11/01 10:21:12;;;;;;;62.23;37.33;;;17.50;99.90;;;;;;9983180;29;20261;-89
2022/11/01 10:26:20;;;;;;;58.97;36.80;;;14.40;99.90;;;;;;10004093;29;20270;-90
2022/11/01 10:31:26;;;;;;;64.13;36.67;;;15.30;99.90;;;;;;9982644;29;20238;-89
2022/11/01 10:36:32;;;;;;;62.60;36.73;;;15.30;99.90;;;;;;9969273;29;20274;-89
2022/11/01 10:41:49;;;;;;;72.00;40.13;;;15.20;99.90;;;;;;9972838;29;20262;-88
2022/11/01 10:46:52;;;;;;;77.60;40.77;;;13.80;99.90;;;;;;9986145;29;20274;-88
2022/11/01 10:52:00;;;;;;;77.17;37.60;;;13.10;99.90;;;;;;9995420;29;20370;-88
2022/11/01 10:57:09;;;;;;;64.83;35.40;;;13.20;99.90;;;;;;9989334;29;20259;-88
2022/11/01 11:02:26;;;;;;;65.90;36.07;;;14.90;99.90;;;;;;9974845;29;20247;-87
2022/11/01 11:07:30;;;;;;;56.40;33.90;;;15.10;99.90;;;;;;9976890;29;20295;-88
2022/11/01 11:12:35;;;;;;;65.87;37.67;;;15.20;99.90;;;;;;10015131;29;20258;-88
2022/11/01 11:17:44;;;;;;;66.70;40.60;;;15.30;99.90;;;;;;10004269;29;20249;-87
2022/11/01 11:22:47;;;;;;;79.67;42.77;;;14.00;99.90;;;;;;9966267;29;20278;-87
2022/11/01 11:27:55;;;;;;;85.73;43.30;;;12.80;99.90;;;;;;10001945;29;20303;-87
2022/11/01 11:33:00;;;;;;;80.13;41.07;;;12.80;99.90;;;;;;10014936;29;20318;-88
2022/11/01 11:38:05;;;;;;;65.37;38.37;;;12.90;99.90;;;;;;10006082;29;20241;-87
2022/11/01 11:43:29;;;;;;;69.93;37.83;;;15.10;99.90;;;;;;9990849;29;20735;-87
2022/11/01 11:48:31;;;;;;;68.77;38.40;;;13.90;99.90;;;;;;9997866;29;20331;-87
2022/11/01 11:53:34;;;;;;;72.40;41.63;;;13.50;99.90;;;;;;9992189;29;20245;-87
2022/11/01 11:58:38;;;;;;;77.57;41.17;;;13.20;99.90;;;;;;10023931;29;20250;-87
2022/11/01 12:03:55;;;;;;;61.83;37.20;;;13.20;99.90;;;;;;10024579;29;20286;-87
2022/11/01 12:08:59;;;;;;;76.17;37.87;;;13.70;99.90;;;;;;9993049;29;20331;-87
2022/11/01 12:14:17;;;;;;;67.73;37.30;;;13.50;99.90;;;;;;9988367;29;20300;-87
2022/11/01 12:19:23;;;;;;;63.17;38.67;;;13.80;99.90;;;;;;10010889;29;20307;-87
2022/11/01 12:24:36;;;;;;;68.20;38.43;;;13.60;99.90;;;;;;10004989;29;20283;-86
2022/11/01 12:29:50;;;;;;;77.83;41.63;;;13.30;99.90;;;;;;10005925;29;20253;-86
2022/11/01 12:34:55;;;;;;;74.07;40.83;;;13.20;99.90;;;;;;9990110;29;20255;-87
2022/11/01 12:39:58;;;;;;;74.67;41.13;;;12.90;99.90;;;;;;9995356;29;20254;-87
2022/11/01 12:45:21;;;;;;;72.40;41.87;;;13.10;99.90;;;;;;9997499;29;20273;-87
2022/11/01 12:50:49;;;;;;;68.23;40.13;;;13.00;99.90;;;;;;9978763;29;20254;-87
2022/11/01 12:55:52;;;;;;;79.87;43.37;;;12.90;99.90;;;;;;9998468;29;20685;-86
2022/11/01 13:01:33;;;;;;;84.30;44.60;;;12.90;99.90;;;;;;9996323;29;20254;-87
2022/11/01 13:06:56;;;;;;;75.80;43.50;;;12.90;99.90;;;;;;9978747;29;20301;-87
2022/11/01 13:12:14;;;;;;;73.93;40.80;;;12.90;99.90;;;;;;10011563;29;20250;-87
2022/11/01 13:17:38;;;;;;;79.67;44.13;;;13.20;99.90;;;;;;9991251;29;20253;-87
2022/11/01 13:23:01;;;;;;;87.23;46.37;;;12.90;99.90;;;;;;10001786;29;20309;-86
2022/11/01 13:28:16;;;;;;;90.83;48.43;;;12.90;99.90;;;;;;9995660;29;20278;-87
2022/11/01 13:33:54;;;;;;;93.07;47.03;;;12.70;99.90;;;;;;9646898;29;9999962;-86
2022/11/01 13:39:11;;;;;;;91.00;48.90;;;12.70;99.90;;;;;;9967197;29;20766;-87
2022/11/01 13:44:19;;;;;;;96.60;49.83;;;12.70;99.90;;;;;;9991221;29;20320;-87
2022/11/01 13:49:37;;;;;;;94.53;48.87;;;12.70;99.90;;;;;;9966866;29;20323;-87
2022/11/01 13:55:12;;;;;;;95.63;49.97;;;12.70;99.90;;;;;;9991269;29;20279;-87
2022/11/01 14:00:36;;;;;;;90.83;49.87;;;12.70;99.90;;;;;;9989300;29;20298;-87
2022/11/01 14:05:39;;;;;;;92.13;47.50;;;12.70;99.90;;;;;;9984758;29;20311;-88
2022/11/01 14:10:46;;;;;;;85.70;48.60;;;12.70;99.90;;;;;;10006668;29;20843;-87
2022/11/01 14:15:54;;;;;;;105.40;54.53;;;12.60;99.90;;;;;;9972375;29;20256;-88
2022/11/01 14:20:57;;;;;;;99.83;53.80;;;12.50;99.90;;;;;;9972293;29;20290;-88
2022/11/01 14:26:17;;;;;;;102.93;53.40;;;12.50;99.90;;;;;;10009675;29;20668;-87
2022/11/01 14:31:25;;;;;;;108.13;54.93;;;12.30;99.90;;;;;;9988107;29;20304;-87
2022/11/01 14:36:32;;;;;;;102.93;56.80;;;12.30;99.90;;;;;;9991590;29;20250;-87
2022/11/01 14:41:39;;;;;;;107.60;56.33;;;12.30;99.90;;;;;;10002617;29;20269;-87
2022/11/01 14:46:45;;;;;;;112.60;58.63;;;12.30;99.90;;;;;;9976621;29;20713;-87
2022/11/01 14:52:08;;;;;;;109.70;57.23;;;12.30;99.90;;;;;;9972193;29;20686;-87
2022/11/01 14:57:25;;;;;;;102.90;57.53;;;12.20;99.90;;;;;;9994998;29;20320;-88
2022/11/01 15:02:28;;;;;;;107.17;56.33;;;12.20;99.90;;;;;;9964981;29;20252;-87
2022/11/01 15:07:39;;;;;;;104.67;55.60;;;12.20;99.90;;;;;;9993246;29;20273;-88
2022/11/01 15:12:59;;;;;;;111.57;58.97;;;12.00;99.90;;;;;;10007521;29;20250;-88
2022/11/01 15:18:04;;;;;;;120.03;59.47;;;12.00;99.90;;;;;;9966543;29;20253;-88
2022/11/01 15:23:14;;;;;;;110.27;59.90;;;11.90;99.90;;;;;;9974754;29;20258;-88
2022/11/01 15:28:29;;;;;;;106.87;58.33;;;11.80;99.90;;;;;;9973305;29;20318;-88
2022/11/01 15:33:32;;;;;;;120.60;63.17;;;11.80;99.90;;;;;;9985724;29;20726;-88
2022/11/01 15:38:49;;;;;;;116.27;60.23;;;11.70;99.90;;;;;;9980329;29;20320;-90
2022/11/01 15:43:56;;;;;;;121.27;64.03;;;11.60;99.90;;;;;;10002556;29;20321;-89
2022/11/01 15:49:07;;;;;;;120.23;63.70;;;11.50;99.90;;;;;;9982843;29;20278;-89
2022/11/01 15:54:28;;;;;;;121.93;63.73;;;11.50;99.90;;;;;;9987253;29;20275;-88
2022/11/01 15:59:44;;;;;;;122.87;64.10;;;11.40;99.90;;;;;;9981160;29;20247;-89
2022/11/01 16:04:47;;;;;;;125.93;65.90;;;11.40;99.90;;;;;;9982342;29;20291;-89
2022/11/01 16:10:01;;;;;;;119.10;65.20;;;11.40;99.90;;;;;;9984619;29;20272;-89
2022/11/01 16:15:06;;;;;;;131.67;66.73;;;11.40;99.90;;;;;;10022729;29;20322;-89
2022/11/01 16:20:31;;;;;;;131.37;63.97;;;11.40;99.90;;;;;;10005334;29;20262;-89
2022/11/01 16:25:37;;;;;;;63.43;38.63;;;11.40;99.90;;;;;;9995616;29;20294;-91
2022/11/01 16:30:53;;;;;;;72.63;42.47;;;11.80;99.90;;;;;;10000707;29;20574;-93
2022/11/01 16:35:59;;;;;;;113.47;57.80;;;13.90;99.90;;;;;;10002904;29;20274;-96
2022/11/01 16:41:05;;;;;;;110.77;56.27;;;12.20;99.90;;;;;;10006021;29;20302;-96
2022/11/01 16:46:07;;;;;;;110.07;57.57;;;11.60;99.90;;;;;;10007153;29;20283;-96
2022/11/01 16:51:10;;;;;;;111.53;59.90;;;11.50;99.90;;;;;;10006001;29;20338;-96
2022/11/01 16:56:24;;;;;;;119.80;57.97;;;11.40;99.90;;;;;;10005578;29;20226;-96
2022/11/01 17:01:44;;;;;;;112.77;56.70;;;11.40;99.90;;;;;;10005339;29;20214;-95
2022/11/01 17:06:48;;;;;;;114.27;60.43;;;11.30;99.90;;;;;;10005809;29;20297;-96
2022/11/01 17:11:52;;;;;;;115.27;62.13;;;11.30;99.90;;;;;;10016663;29;20220;-96
2022/11/01 17:16:55;;;;;;;118.97;61.73;;;11.30;99.90;;;;;;10026945;29;20221;-96
2022/11/01 17:22:20;;;;;;;130.93;67.23;;;11.30;99.90;;;;;;10047014;29;20711;-96
2022/11/01 17:27:26;;;;;;;126.03;62.73;;;11.30;99.90;;;;;;10047352;29;20237;-96
2022/11/01 17:32:29;;;;;;;131.73;62.23;;;11.30;99.90;;;;;;10033032;29;20218;-96
2022/11/01 17:37:35;;;;;;;126.30;64.60;;;11.20;99.90;;;;;;10047692;29;20266;-96
2022/11/01 17:42:38;;;;;;;116.50;66.13;;;11.20;99.90;;;;;;10031363;29;20296;-96
2022/11/01 17:47:42;;;;;;;120.37;64.67;;;11.30;99.90;;;;;;10032910;29;20240;-96
2022/11/01 17:52:46;;;;;;;129.87;66.43;;;11.30;99.90;;;;;;10049542;29;20208;-96
2022/11/01 17:57:49;;;;;;;125.90;68.17;;;11.30;99.90;;;;;;10032630;29;20249;-96
2022/11/01 18:02:52;;;;;;;134.50;69.60;;;11.30;99.90;;;;;;10052571;29;20216;-96
2022/11/01 18:07:58;;;;;;;137.13;74.83;;;11.30;99.90;;;;;;10034588;29;20297;-96
2022/11/01 18:13:17;;;;;;;132.87;72.20;;;11.40;99.90;;;;;;10031619;29;20252;-96
2022/11/01 18:18:47;;;;;;;135.27;73.20;;;11.30;99.90;;;;;;10050757;29;20226;-96
2022/11/01 18:23:54;;;;;;;124.63;67.00;;;11.30;99.90;;;;;;10050676;29;20261;-96
2022/11/01 18:29:16;;;;;;;126.37;65.47;;;11.40;99.90;;;;;;10037480;29;20247;-96
2022/11/01 18:34:45;;;;;;;120.47;64.40;;;11.60;99.90;;;;;;10047286;29;20251;-96
2022/11/01 18:40:08;;;;;;;118.03;63.40;;;11.60;99.90;;;;;;10039921;29;20221;-96
2022/11/01 18:45:23;;;;;;;114.37;60.73;;;11.70;99.90;;;;;;10048537;29;20727;-96
2022/11/01 18:50:37;;;;;;;112.47;62.63;;;11.70;99.90;;;;;;10049882;29;20283;-96
2022/11/01 18:55:46;;;;;;;105.17;59.47;;;11.70;99.90;;;;;;10045107;29;20767;-96
2022/11/01 19:01:16;;;;;;;110.27;60.27;;;11.70;99.90;;;;;;10051609;29;20222;-96
2022/11/01 19:06:21;;;;;;;99.63;59.07;;;11.80;99.90;;;;;;9980862;29;20268;-90
2022/11/01 19:11:26;;;;;;;121.33;62.57;;;12.40;99.90;;;;;;9981187;29;20253;-91
2022/11/01 19:16:29;;;;;;;94.43;53.93;;;12.30;99.90;;;;;;9987882;29;20272;-90
2022/11/01 19:21:34;;;;;;;94.23;53.90;;;12.40;99.90;;;;;;9993127;29;20299;-90
2022/11/01 19:26:41;;;;;;;84.47;50.93;;;12.40;99.90;;;;;;9969190;29;20276;-90
2022/11/01 19:31:47;;;;;;;92.93;54.13;;;12.30;99.90;;;;;;10004714;29;20249;-90
2022/11/01 19:36:51;;;;;;;96.33;55.57;;;12.30;99.90;;;;;;9991262;29;20313;-90
2022/11/01 19:42:01;;;;;;;109.03;63.63;;;12.30;99.90;;;;;;10012300;29;20318;-89
2022/11/01 19:47:38;;;;;;;121.93;70.97;;;12.30;99.90;;;;;;10008397;29;20311;-90
2022/11/01 19:52:43;;;;;;;129.03;72.03;;;12.20;99.90;;;;;;9989070;29;20257;-89
2022/11/01 19:57:49;;;;;;;94.00;56.13;;;12.30;99.90;;;;;;10021237;29;20252;-90
2022/11/01 20:02:56;;;;;;;92.50;51.70;;;12.30;99.90;;;;;;10005203;29;20257;-91
2022/11/01 20:08:12;;;;;;;85.27;48.47;;;12.40;99.90;;;;;;9987374;29;20265;-91
2022/11/01 20:13:16;;;;;;;92.97;52.37;;;12.30;99.90;;;;;;9996874;29;20245;-90
2022/11/01 20:18:19;;;;;;;89.47;53.20;;;12.30;99.90;;;;;;10003495;29;20285;-90
2022/11/01 20:23:21;;;;;;;83.83;51.43;;;12.30;99.90;;;;;;9980367;29;20243;-91
2022/11/01 20:28:29;;;;;;;87.80;49.00;;;12.20;99.90;;;;;;9987212;29;20265;-90
2022/11/01 20:33:31;;;;;;;93.40;52.50;;;12.00;99.90;;;;;;10009200;29;20295;-90
2022/11/01 20:38:34;;;;;;;89.03;52.40;;;12.00;99.90;;;;;;9982716;29;20253;-90
2022/11/01 20:43:36;;;;;;;99.63;57.53;;;11.80;99.90;;;;;;9982389;29;20307;-90
2022/11/01 20:54:11;;;;;;;93.73;54.63;;;11.80;99.90;;;;;;9984976;24;20269;-91
2022/11/01 20:59:19;;;;;;;103.13;62.60;;;11.80;99.90;;;;;;10070314;29;20220;-91
2022/11/01 21:04:24;;;;;;;102.57;58.63;;;11.70;99.90;;;;;;10067943;29;20219;-91
2022/11/01 21:09:34;;;;;;;101.53;58.13;;;11.70;99.90;;;;;;10084967;29;20253;-91
2022/11/01 21:14:37;;;;;;;96.27;57.20;;;11.80;99.90;;;;;;10065667;29;20216;-90
2022/11/01 21:19:39;;;;;;;97.90;57.27;;;11.80;99.90;;;;;;10081425;29;20224;-92
2022/11/01 21:24:45;;;;;;;99.73;55.50;;;11.70;99.90;;;;;;10065235;29;20216;-91
2022/11/01 21:29:49;;;;;;;96.57;55.47;;;11.50;99.90;;;;;;10064871;29;20228;-92
2022/11/01 21:34:52;;;;;;;91.30;55.20;;;11.40;99.90;;;;;;10107708;29;20227;-92
2022/11/01 21:39:59;;;;;;;90.20;53.30;;;11.30;99.90;;;;;;10107263;29;20262;-92
2022/11/01 21:45:30;;;;;;;93.90;51.13;;;11.10;99.90;;;;;;10090606;29;20556;-89
2022/11/01 21:50:33;;;;;;;84.50;48.83;;;10.90;99.90;;;;;;10077040;29;20224;-91
2022/11/01 21:55:35;;;;;;;72.77;44.70;;;10.80;99.90;;;;;;10073363;29;20196;-91
2022/11/01 22:00:38;;;;;;;75.83;43.83;;;10.90;99.90;;;;;;10107012;29;20215;-90
2022/11/01 22:05:40;;;;;;;67.23;39.30;;;10.80;99.90;;;;;;10101649;29;20215;-91
2022/11/01 22:10:43;;;;;;;67.93;38.07;;;10.80;99.90;;;;;;10093359;29;20515;-91
2022/11/01 22:15:45;;;;;;;55.27;33.03;;;10.80;99.90;;;;;;10090655;29;20219;-91
2022/11/01 22:20:47;;;;;;;47.53;30.07;;;10.70;99.90;;;;;;10104858;29;20220;-92
2022/11/01 22:25:50;;;;;;;47.23;29.10;;;11.00;99.90;;;;;;10089783;29;20215;-92
2022/11/01 22:30:52;;;;;;;45.60;28.10;;;11.10;99.90;;;;;;10090726;29;20392;-91
2022/11/01 22:35:55;;;;;;;51.07;32.63;;;11.00;99.90;;;;;;10089716;29;20194;-91
2022/11/01 22:41:04;;;;;;;61.60;35.37;;;10.60;99.90;;;;;;10032365;29;20207;-88
2022/11/01 22:46:25;;;;;;;58.60;34.23;;;10.50;99.90;;;;;;10060976;29;20244;-88
2022/11/01 22:51:38;;;;;;;63.57;36.97;;;10.60;99.90;;;;;;10044545;29;20478;-90
2022/11/01 22:56:41;;;;;;;52.17;31.80;;;10.70;99.90;;;;;;10060953;29;20207;-90
2022/11/01 23:01:43;;;;;;;69.80;41.07;;;10.60;99.90;;;;;;10042863;29;20755;-90
2022/11/01 23:06:49;;;;;;;78.10;44.40;;;10.90;99.90;;;;;;10044900;29;20223;-90
2022/11/01 23:17:23;;;;;;;84.73;49.97;;;10.80;99.90;;;;;;10049003;29;20210;-90
2022/11/01 23:22:31;;;;;;;74.37;43.10;;;11.00;99.90;;;;;;10039484;29;20280;-90
2022/11/01 23:27:34;;;;;;;76.23;43.20;;;10.90;99.90;;;;;;10034410;29;20304;-90
2022/11/01 23:32:36;;;;;;;64.10;40.40;;;11.00;99.90;;;;;;10035118;29;20693;-91
2022/11/01 23:37:40;;;;;;;66.13;37.70;;;10.80;99.90;;;;;;10058993;29;20776;-91
2022/11/01 23:42:43;;;;;;;61.97;37.00;;;10.90;99.90;;;;;;10026847;29;20251;-91
2022/11/01 23:47:46;;;;;;;80.30;37.83;;;11.00;99.90;;;;;;10050981;29;20297;-89
2022/11/01 23:52:54;;;;;;;56.17;34.73;;;10.90;99.90;;;;;;10055668;29;20261;-89
2022/11/01 23:58:08;;;;;;;49.87;31.20;;;10.90;99.90;;;;;;10058208;29;20244;-89
